createdAt,value
2023-02-26T00:01:58.549Z,-0.63
2023-02-26T00:04:27.986Z,-0.70
2023-02-26T00:06:59.723Z,-0.75
2023-02-26T00:09:28.783Z,-0.78
2023-02-26T00:11:59.308Z,-0.87
2023-02-26T00:14:29.179Z,-0.89
2023-02-26T00:17:01.646Z,-0.82
2023-02-26T00:19:31.443Z,-0.76
2023-02-26T00:22:01.733Z,-0.65
2023-02-26T00:24:31.366Z,-0.62
2023-02-26T00:27:00.685Z,-0.61
2023-02-26T00:29:30.933Z,-0.68
2023-02-26T00:32:00.737Z,-0.73
2023-02-26T00:34:30.463Z,-0.81
2023-02-26T00:37:20.363Z,-0.74
2023-02-26T00:39:58.873Z,-0.81
2023-02-26T00:42:28.837Z,-0.71
2023-02-26T00:44:58.694Z,-0.63
2023-02-26T00:47:54.834Z,-0.56
2023-02-26T00:50:25.946Z,-0.51
2023-02-26T00:52:58.432Z,-0.46
2023-02-26T00:55:29.439Z,-0.39
2023-02-26T00:57:58.848Z,-0.36
2023-02-26T01:00:28.571Z,-0.32
2023-02-26T01:02:58.772Z,-0.27
2023-02-26T01:05:28.344Z,-0.28
2023-02-26T01:08:32.475Z,-0.19
2023-02-26T01:11:02.202Z,-0.11
2023-02-26T01:13:32.034Z,0.01
2023-02-26T01:16:04.914Z,0.02
2023-02-26T01:18:39.634Z,0.04
2023-02-26T01:21:11.728Z,0.06
2023-02-26T01:23:44.687Z,-0.02
2023-02-26T01:26:20.711Z,-0.09
2023-02-26T01:28:50.577Z,-0.17
2023-02-26T01:31:46.122Z,-0.23
2023-02-26T01:34:21.653Z,-0.23
2023-02-26T01:36:57.444Z,-0.19
2023-02-26T01:39:38.789Z,-0.22
2023-02-26T01:42:14.185Z,-0.31
2023-02-26T01:44:58.430Z,-0.30
2023-02-26T01:47:36.339Z,-0.22
2023-02-26T01:50:14.854Z,-0.30
2023-02-26T01:52:53.548Z,-0.29
2023-02-26T01:55:25.476Z,-0.29
2023-02-26T01:57:57.062Z,-0.46
2023-02-26T02:00:26.382Z,-0.52
2023-02-26T02:02:55.798Z,-0.59
2023-02-26T02:05:31.331Z,-0.61
2023-02-26T02:08:01.612Z,-0.68
2023-02-26T02:10:31.504Z,-0.75
2023-02-26T02:13:19.101Z,-0.86
2023-02-26T02:15:52.705Z,-0.91
2023-02-26T02:18:40.211Z,-0.91
2023-02-26T02:21:24.965Z,-0.92
2023-02-26T02:24:17.251Z,-0.92
2023-02-26T02:26:59.556Z,-0.93
2023-02-26T02:29:34.617Z,-1.07
2023-02-26T02:32:22.186Z,-1.05
2023-02-26T02:34:54.469Z,-1.15
2023-02-26T02:37:32.920Z,-1.23
2023-02-26T02:40:05.395Z,-1.31
2023-02-26T02:42:37.020Z,-1.31
2023-02-26T02:45:10.887Z,-1.39
2023-02-26T02:47:42.980Z,-1.31
2023-02-26T02:50:24.292Z,-1.33
2023-02-26T02:52:57.216Z,-1.39
2023-02-26T02:55:29.906Z,-1.34
2023-02-26T02:58:05.022Z,-1.31
2023-02-26T03:00:36.349Z,-1.37
2023-02-26T03:03:37.804Z,-1.37
2023-02-26T03:06:07.873Z,-1.37
2023-02-26T03:08:41.636Z,-1.42
2023-02-26T03:11:11.336Z,-1.51
2023-02-26T03:13:41.333Z,-1.37
2023-02-26T03:16:21.660Z,-1.35
2023-02-26T03:19:16.173Z,-1.46
2023-02-26T03:22:05.479Z,-1.54
2023-02-26T03:24:42.426Z,-1.62
2023-02-26T03:27:15.048Z,-1.58
2023-02-26T03:30:00.797Z,-1.55
2023-02-26T03:32:50.558Z,-1.50
2023-02-26T03:35:55.741Z,-1.57
2023-02-26T03:38:28.350Z,-1.67
2023-02-26T03:41:02.476Z,-1.69
2023-02-26T03:43:36.226Z,-1.61
2023-02-26T03:46:08.863Z,-1.49
2023-02-26T03:48:38.559Z,-1.59
2023-02-26T03:51:11.113Z,-1.54
2023-02-26T03:54:00.308Z,-1.59
2023-02-26T03:56:42.952Z,-1.67
2023-02-26T03:59:14.937Z,-1.72
2023-02-26T04:01:52.194Z,-1.68
2023-02-26T04:04:34.390Z,-1.69
2023-02-26T04:07:03.484Z,-1.75
2023-02-26T04:09:33.075Z,-1.88
2023-02-26T04:12:02.994Z,-1.77
2023-02-26T04:14:32.216Z,-1.79
2023-02-26T04:17:01.589Z,-1.82
2023-02-26T04:19:31.007Z,-1.92
2023-02-26T04:22:00.486Z,-2.01
2023-02-26T04:24:30.010Z,-2.03
2023-02-26T04:27:01.184Z,-2.05
2023-02-26T04:29:32.453Z,-2.08
2023-02-26T04:32:02.902Z,-2.15
2023-02-26T04:34:32.677Z,-2.11
2023-02-26T04:37:02.118Z,-1.96
2023-02-26T04:39:32.096Z,-1.99
2023-02-26T04:42:01.516Z,-2.14
2023-02-26T04:44:31.361Z,-2.23
2023-02-26T04:47:01.639Z,-2.13
2023-02-26T04:49:31.505Z,-2.05
2023-02-26T04:52:00.901Z,-2.08
2023-02-26T04:54:30.541Z,-2.08
2023-02-26T04:56:59.862Z,-2.14
2023-02-26T04:59:29.543Z,-2.09
2023-02-26T05:02:00.190Z,-2.20
2023-02-26T05:04:29.728Z,-2.16
2023-02-26T05:07:01.201Z,-2.13
2023-02-26T05:09:30.522Z,-2.20
2023-02-26T05:11:59.858Z,-2.21
2023-02-26T05:14:29.163Z,-2.28
2023-02-26T05:16:59.531Z,-2.36
2023-02-26T05:19:29.362Z,-2.38
2023-02-26T05:21:58.735Z,-2.39
2023-02-26T05:24:28.022Z,-2.45
2023-02-26T05:26:57.513Z,-2.50
2023-02-26T05:29:26.822Z,-2.49
2023-02-26T05:31:57.437Z,-2.55
2023-02-26T05:34:26.916Z,-2.55
2023-02-26T05:36:56.150Z,-2.49
2023-02-26T05:39:25.394Z,-2.46
2023-02-26T05:41:55.511Z,-2.45
2023-02-26T05:44:25.419Z,-2.50
2023-02-26T05:46:54.906Z,-2.52
2023-02-26T05:49:24.197Z,-2.47
2023-02-26T05:51:53.449Z,-2.48
2023-02-26T05:54:22.731Z,-2.41
2023-02-26T05:56:52.317Z,-2.38
2023-02-26T05:59:21.874Z,-2.40
2023-02-26T06:01:51.288Z,-2.49
2023-02-26T06:04:21.265Z,-2.52
2023-02-26T06:06:50.470Z,-2.39
2023-02-26T06:09:19.735Z,-2.40
2023-02-26T06:11:48.937Z,-2.40
2023-02-26T06:14:18.579Z,-2.41
2023-02-26T06:16:47.910Z,-2.42
2023-02-26T06:19:17.473Z,-2.33
2023-02-26T06:21:47.083Z,-2.41
2023-02-26T06:24:16.862Z,-2.28
2023-02-26T06:26:46.139Z,-2.43
2023-02-26T06:29:15.435Z,-2.45
2023-02-26T06:31:45.388Z,-2.49
2023-02-26T06:34:15.129Z,-2.34
2023-02-26T06:36:44.878Z,-2.34
2023-02-26T06:39:14.783Z,-2.31
2023-02-26T06:41:44.069Z,-2.20
2023-02-26T06:44:13.450Z,-2.21
2023-02-26T06:46:42.779Z,-2.21
2023-02-26T06:49:12.172Z,-2.24
2023-02-26T06:51:41.460Z,-2.15
2023-02-26T06:54:11.098Z,-2.10
2023-02-26T06:56:40.566Z,-2.25
2023-02-26T06:59:09.920Z,-2.21
2023-02-26T07:01:40.060Z,-2.09
2023-02-26T07:04:09.452Z,-2.07
2023-02-26T07:06:38.887Z,-2.01
2023-02-26T07:09:08.327Z,-1.94
2023-02-26T07:11:37.670Z,-1.89
2023-02-26T07:14:07.096Z,-1.80
2023-02-26T07:16:36.583Z,-1.80
2023-02-26T07:19:05.849Z,-1.76
2023-02-26T07:21:35.716Z,-1.61
2023-02-26T07:24:05.614Z,-0.53
2023-02-26T07:26:34.967Z,0.62
2023-02-26T07:29:04.744Z,0.66
2023-02-26T07:31:34.679Z,0.23
2023-02-26T07:34:04.482Z,-0.33
2023-02-26T07:36:33.734Z,-0.47
2023-02-26T07:39:03.150Z,-0.24
2023-02-26T07:41:32.344Z,0.06
2023-02-26T07:44:01.664Z,0.14
2023-02-26T07:46:30.894Z,0.14
2023-02-26T07:49:00.729Z,0.06
2023-02-26T07:51:32.398Z,-0.05
2023-02-26T07:54:00.862Z,0.14
2023-02-26T07:56:30.729Z,0.17
2023-02-26T07:59:00.516Z,0.08
2023-02-26T08:01:29.830Z,0.42
2023-02-26T08:03:59.103Z,0.67
2023-02-26T08:06:29.317Z,0.96
2023-02-26T08:08:58.578Z,1.06
2023-02-26T08:11:28.307Z,1.16
2023-02-26T08:13:57.713Z,0.90
2023-02-26T08:16:27.585Z,0.68
2023-02-26T08:18:57.010Z,0.74
2023-02-26T08:21:26.684Z,1.11
2023-02-26T08:23:56.046Z,1.22
2023-02-26T08:26:25.981Z,1.71
2023-02-26T08:28:55.753Z,1.54
2023-02-26T08:31:25.813Z,1.66
2023-02-26T08:33:55.855Z,2.04
2023-02-26T08:36:26.495Z,2.19
2023-02-26T08:38:56.058Z,2.11
2023-02-26T08:41:27.701Z,2.36
2023-02-26T08:43:57.585Z,2.60
2023-02-26T08:46:28.030Z,2.46
2023-02-26T08:48:57.646Z,2.48
2023-02-26T08:51:27.441Z,3.17
2023-02-26T08:53:56.906Z,3.73
2023-02-26T08:56:26.862Z,4.04
2023-02-26T08:58:56.650Z,4.94
2023-02-26T09:01:26.197Z,6.58
2023-02-26T09:03:55.807Z,6.16
2023-02-26T09:06:25.418Z,7.00
2023-02-26T09:08:55.386Z,6.80
2023-02-26T09:11:25.424Z,6.41
2023-02-26T09:13:54.833Z,7.78
2023-02-26T09:16:24.559Z,7.38
2023-02-26T09:18:54.166Z,8.24
2023-02-26T09:21:24.106Z,6.69
2023-02-26T09:23:53.335Z,6.92
2023-02-26T09:26:23.183Z,7.65
2023-02-26T09:28:52.701Z,7.98
2023-02-26T09:31:22.312Z,8.26
2023-02-26T09:33:51.642Z,8.60
2023-02-26T09:36:21.427Z,8.43
2023-02-26T09:38:50.638Z,7.94
2023-02-26T09:41:32.367Z,8.56
2023-02-26T09:44:25.606Z,7.79
2023-02-26T09:47:19.280Z,8.33
2023-02-26T09:50:15.967Z,7.47
2023-02-26T09:52:51.627Z,7.08
2023-02-26T09:55:26.668Z,8.21
2023-02-26T09:57:59.216Z,8.54
2023-02-26T10:00:35.462Z,7.83
2023-02-26T10:03:19.986Z,8.27
2023-02-26T10:05:58.127Z,8.58
2023-02-26T10:08:30.631Z,9.07
2023-02-26T10:11:15.285Z,7.78
2023-02-26T10:13:57.275Z,8.30
2023-02-26T10:16:23.710Z,8.99
2023-02-26T10:19:00.516Z,9.49
2023-02-26T10:21:41.741Z,8.55
2023-02-26T10:24:14.234Z,8.42
2023-02-26T10:26:46.594Z,9.78
2023-02-26T10:29:31.069Z,10.58
2023-02-26T10:32:16.147Z,8.99
2023-02-26T10:34:53.654Z,9.51
2023-02-26T10:37:44.415Z,9.44
2023-02-26T10:40:29.178Z,6.90
2023-02-26T10:43:07.471Z,6.93
2023-02-26T10:45:39.942Z,7.62
2023-02-26T10:48:15.425Z,7.79
2023-02-26T10:50:56.963Z,7.63
2023-02-26T10:53:28.461Z,8.92
2023-02-26T10:56:00.860Z,9.97
2023-02-26T10:58:30.075Z,9.07
2023-02-26T11:00:59.361Z,8.72
2023-02-26T11:03:34.821Z,9.33
2023-02-26T11:06:06.596Z,9.00
2023-02-26T11:08:39.044Z,8.86
2023-02-26T11:11:09.021Z,8.27
2023-02-26T11:13:40.700Z,8.02
2023-02-26T11:16:18.656Z,9.58
2023-02-26T11:18:54.021Z,10.33
2023-02-26T11:21:26.775Z,9.78
2023-02-26T11:23:59.771Z,10.65
2023-02-26T11:26:32.422Z,10.29
2023-02-26T11:29:01.777Z,10.05
2023-02-26T11:31:32.066Z,9.08
2023-02-26T11:34:04.774Z,7.48
2023-02-26T11:36:35.502Z,8.46
2023-02-26T11:39:08.010Z,9.89
2023-02-26T11:41:37.982Z,9.37
2023-02-26T11:44:09.635Z,9.24
2023-02-26T11:46:42.047Z,8.89
2023-02-26T11:49:14.076Z,8.86
2023-02-26T11:51:46.443Z,9.46
2023-02-26T11:54:24.340Z,9.00
2023-02-26T11:56:53.779Z,9.39
2023-02-26T11:59:24.921Z,9.68
2023-02-26T12:01:55.193Z,9.40
2023-02-26T12:04:27.892Z,9.11
2023-02-26T12:06:58.088Z,7.99
2023-02-26T12:09:28.180Z,8.58
2023-02-26T12:12:15.847Z,8.87
2023-02-26T12:14:53.913Z,9.62
2023-02-26T12:17:35.221Z,9.08
2023-02-26T12:20:15.299Z,9.29
2023-02-26T12:23:04.427Z,8.82
2023-02-26T12:26:10.195Z,8.82
2023-02-26T12:28:59.202Z,9.77
2023-02-26T12:31:47.268Z,8.65
2023-02-26T12:34:34.926Z,8.91
2023-02-26T12:37:29.284Z,8.74
2023-02-26T12:40:07.650Z,9.01
2023-02-26T12:43:10.480Z,9.46
2023-02-26T12:46:02.226Z,9.51
2023-02-26T12:48:46.508Z,9.84
2023-02-26T12:51:28.181Z,9.24
2023-02-26T12:54:28.029Z,8.65
2023-02-26T12:57:23.322Z,8.39
2023-02-26T13:00:15.113Z,8.23
2023-02-26T13:03:12.137Z,8.61
2023-02-26T13:06:02.669Z,9.25
2023-02-26T13:08:35.752Z,8.27
2023-02-26T13:11:08.184Z,6.83
2023-02-26T13:13:46.759Z,6.85
2023-02-26T13:16:34.601Z,7.36
2023-02-26T13:19:19.264Z,7.59
2023-02-26T13:21:54.313Z,7.85
2023-02-26T13:24:30.098Z,7.54
2023-02-26T13:27:00.371Z,7.79
2023-02-26T13:29:36.376Z,7.83
2023-02-26T13:32:13.245Z,7.70
2023-02-26T13:34:46.519Z,7.93
2023-02-26T13:37:30.466Z,7.87
2023-02-26T13:40:22.558Z,7.97
2023-02-26T13:43:14.505Z,8.07
2023-02-26T13:45:53.023Z,7.41
2023-02-26T13:48:25.473Z,7.53
2023-02-26T13:51:13.984Z,7.06
2023-02-26T13:53:49.848Z,7.27
2023-02-26T13:56:34.511Z,7.81
2023-02-26T13:59:20.550Z,7.58
2023-02-26T14:01:53.769Z,7.38
2023-02-26T14:04:26.483Z,6.60
2023-02-26T14:07:13.848Z,6.59
2023-02-26T14:10:02.015Z,6.12
2023-02-26T14:12:36.386Z,6.01
2023-02-26T14:15:20.564Z,6.23
2023-02-26T14:17:52.281Z,6.09
2023-02-26T14:20:27.650Z,5.89
2023-02-26T14:23:12.603Z,6.03
2023-02-26T14:25:45.038Z,5.71
2023-02-26T14:28:30.205Z,5.75
2023-02-26T14:31:22.377Z,5.79
2023-02-26T14:34:00.755Z,5.90
2023-02-26T14:36:49.727Z,6.11
2023-02-26T14:39:33.378Z,6.35
2023-02-26T14:42:05.999Z,6.37
2023-02-26T14:44:38.246Z,6.44
2023-02-26T14:47:07.994Z,6.50
2023-02-26T14:49:40.432Z,6.59
2023-02-26T14:52:30.817Z,6.55
2023-02-26T14:55:07.596Z,6.36
2023-02-26T14:58:05.693Z,6.04
2023-02-26T15:00:49.791Z,6.19
2023-02-26T15:03:25.158Z,5.88
2023-02-26T15:06:03.446Z,5.61
2023-02-26T15:08:35.904Z,5.74
2023-02-26T15:11:24.977Z,5.56
2023-02-26T15:14:00.528Z,5.58
2023-02-26T15:16:44.831Z,5.70
2023-02-26T15:19:36.888Z,5.39
2023-02-26T15:22:23.785Z,5.45
2023-02-26T15:24:53.624Z,5.48
2023-02-26T15:27:23.056Z,5.74
2023-02-26T15:29:53.161Z,5.73
2023-02-26T15:32:28.901Z,5.80
2023-02-26T15:35:01.490Z,5.86
2023-02-26T15:37:32.303Z,5.48
2023-02-26T15:40:04.991Z,5.18
2023-02-26T15:42:38.334Z,4.90
2023-02-26T15:45:16.951Z,4.73
2023-02-26T15:47:47.965Z,4.68
2023-02-26T15:50:18.459Z,4.67
2023-02-26T15:52:50.055Z,4.68
2023-02-26T15:55:19.498Z,4.57
2023-02-26T15:57:49.336Z,4.52
2023-02-26T16:00:27.657Z,4.37
2023-02-26T16:02:58.944Z,4.26
2023-02-26T16:05:29.351Z,4.23
2023-02-26T16:07:58.920Z,4.15
2023-02-26T16:10:31.311Z,4.20
2023-02-26T16:13:01.869Z,4.14
2023-02-26T16:15:39.109Z,4.03
2023-02-26T16:18:12.046Z,4.02
2023-02-26T16:20:44.305Z,3.93
2023-02-26T16:23:16.890Z,3.92
2023-02-26T16:25:57.952Z,3.85
2023-02-26T16:28:37.828Z,3.81
2023-02-26T16:31:12.647Z,3.71
2023-02-26T16:33:43.193Z,3.67
2023-02-26T16:36:16.381Z,3.67
2023-02-26T16:38:49.681Z,3.59
2023-02-26T16:41:22.231Z,3.57
2023-02-26T16:43:52.721Z,3.52
2023-02-26T16:46:33.732Z,3.43
2023-02-26T16:49:08.005Z,3.33
2023-02-26T16:51:39.876Z,3.21
2023-02-26T16:54:27.267Z,3.08
2023-02-26T16:57:09.085Z,3.02
2023-02-26T16:59:39.630Z,2.92
2023-02-26T17:02:22.434Z,2.80
2023-02-26T17:05:03.880Z,2.76
2023-02-26T17:07:36.203Z,2.72
2023-02-26T17:10:11.541Z,2.56
2023-02-26T17:12:50.226Z,2.52
2023-02-26T17:15:35.829Z,2.60
2023-02-26T17:18:05.543Z,2.45
2023-02-26T17:20:34.957Z,2.30
2023-02-26T17:23:06.156Z,2.23
2023-02-26T17:25:38.590Z,2.19
2023-02-26T17:28:07.424Z,2.13
2023-02-26T17:30:38.339Z,2.05
2023-02-26T17:33:10.907Z,1.95
2023-02-26T17:35:39.754Z,1.87
2023-02-26T17:38:13.344Z,1.85
2023-02-26T17:40:45.334Z,1.70
2023-02-26T17:43:15.007Z,1.59
2023-02-26T17:45:44.330Z,1.53
2023-02-26T17:48:16.304Z,1.44
2023-02-26T17:50:51.398Z,1.41
2023-02-26T17:53:22.437Z,1.35
2023-02-26T17:55:53.523Z,1.32
2023-02-26T17:58:32.145Z,1.26
2023-02-26T18:01:03.994Z,1.15
2023-02-26T18:03:33.643Z,1.15
2023-02-26T18:06:03.372Z,1.33
2023-02-26T18:08:34.734Z,1.31
2023-02-26T18:11:05.016Z,1.25
2023-02-26T18:13:34.478Z,1.11
2023-02-26T18:16:04.477Z,1.01
2023-02-26T18:18:34.007Z,1.02
2023-02-26T18:21:04.871Z,1.05
2023-02-26T18:23:34.199Z,0.99
2023-02-26T18:26:03.678Z,0.94
2023-02-26T18:28:33.436Z,0.82
2023-02-26T18:31:04.467Z,0.78
2023-02-26T18:33:33.798Z,0.78
2023-02-26T18:36:03.413Z,0.63
2023-02-26T18:38:32.716Z,0.64
2023-02-26T18:41:02.269Z,0.56
2023-02-26T18:43:31.607Z,0.60
2023-02-26T18:46:02.213Z,0.54
2023-02-26T18:48:32.113Z,0.61
2023-02-26T18:51:01.675Z,0.53
2023-02-26T18:53:30.910Z,0.41
2023-02-26T18:56:00.173Z,0.44
2023-02-26T18:58:29.531Z,0.43
2023-02-26T19:00:59.309Z,0.62
2023-02-26T19:03:29.011Z,0.68
2023-02-26T19:06:04.364Z,0.72
2023-02-26T19:08:34.025Z,0.84
2023-02-26T19:11:03.434Z,0.80
2023-02-26T19:13:34.615Z,0.80
2023-02-26T19:16:04.189Z,0.69
2023-02-26T19:18:33.840Z,0.68
2023-02-26T19:21:04.770Z,0.64
2023-02-26T19:23:34.093Z,0.59
2023-02-26T19:26:04.105Z,0.56
2023-02-26T19:28:33.893Z,0.51
2023-02-26T19:31:03.617Z,0.58
2023-02-26T19:33:33.119Z,0.57
2023-02-26T19:36:04.033Z,0.45
2023-02-26T19:38:33.586Z,0.39
2023-02-26T19:41:02.938Z,0.41
2023-02-26T19:43:32.461Z,0.41
2023-02-26T19:46:01.862Z,0.49
2023-02-26T19:48:31.977Z,0.48
2023-02-26T19:51:03.066Z,0.40
2023-02-26T19:53:32.358Z,0.29
2023-02-26T19:56:02.431Z,0.30
2023-02-26T19:58:32.350Z,0.32
2023-02-26T20:01:03.628Z,0.26
2023-02-26T20:03:33.249Z,0.20
2023-02-26T20:06:03.432Z,0.19
2023-02-26T20:08:32.828Z,0.13
2023-02-26T20:11:02.818Z,0.18
2023-02-26T20:13:34.077Z,0.23
2023-02-26T20:16:05.938Z,0.14
2023-02-26T20:18:36.013Z,0.14
2023-02-26T20:21:08.384Z,0.17
2023-02-26T20:23:37.793Z,0.14
2023-02-26T20:26:14.839Z,0.19
2023-02-26T20:28:44.294Z,0.11
2023-02-26T20:31:14.014Z,0.03
2023-02-26T20:33:43.530Z,0.00
2023-02-26T20:36:12.955Z,-0.07
2023-02-26T20:38:43.031Z,-0.18
2023-02-26T20:41:12.340Z,-0.26
2023-02-26T20:43:41.809Z,-0.35
2023-02-26T20:46:11.384Z,-0.42
2023-02-26T20:48:42.641Z,-0.46
2023-02-26T20:51:12.282Z,-0.60
2023-02-26T20:53:42.637Z,-0.66
2023-02-26T20:56:11.933Z,-0.73
2023-02-26T20:58:41.318Z,-0.75
2023-02-26T21:01:10.969Z,-0.81
2023-02-26T21:03:40.673Z,-0.80
2023-02-26T21:06:11.005Z,-0.90
2023-02-26T21:08:40.692Z,-0.96
2023-02-26T21:11:10.377Z,-1.08
2023-02-26T21:13:39.913Z,-1.04
2023-02-26T21:16:09.326Z,-1.14
2023-02-26T21:18:38.870Z,-1.19
2023-02-26T21:21:08.448Z,-1.27
2023-02-26T21:23:38.037Z,-1.32
2023-02-26T21:26:07.557Z,-1.32
2023-02-26T21:28:36.833Z,-1.51
2023-02-26T21:31:06.286Z,-1.43
2023-02-26T21:33:35.498Z,-1.51
2023-02-26T21:36:06.386Z,-1.50
2023-02-26T21:38:36.097Z,-1.39
2023-02-26T21:41:06.861Z,-1.45
2023-02-26T21:43:36.178Z,-1.43
2023-02-26T21:46:05.877Z,-1.51
2023-02-26T21:48:35.715Z,-1.51
2023-02-26T21:51:05.483Z,-1.46
2023-02-26T21:53:34.764Z,-1.42
2023-02-26T21:56:04.141Z,-1.52
2023-02-26T21:58:37.975Z,-1.61
2023-02-26T22:01:10.682Z,-1.65
2023-02-26T22:03:40.449Z,-1.56
2023-02-26T22:06:15.571Z,-1.52
2023-02-26T22:08:47.116Z,-1.60
2023-02-26T22:11:18.671Z,-1.57
2023-02-26T22:13:52.604Z,-1.50
2023-02-26T22:16:41.260Z,-1.61
2023-02-26T22:19:11.996Z,-1.69
2023-02-26T22:21:41.600Z,-1.69
2023-02-26T22:24:11.315Z,-1.57
2023-02-26T22:26:40.713Z,-1.52
2023-02-26T22:29:15.082Z,-1.48
2023-02-26T22:31:44.672Z,-1.47
2023-02-26T22:34:16.154Z,-1.56
2023-02-26T22:36:47.659Z,-1.54
2023-02-26T22:39:17.246Z,-1.56
2023-02-26T22:41:48.673Z,-1.57
2023-02-26T22:44:18.412Z,-1.60
2023-02-26T22:46:49.516Z,-1.56
2023-02-26T22:49:19.759Z,-1.47
2023-02-26T22:51:49.947Z,-1.35
2023-02-26T22:54:19.174Z,-1.36
2023-02-26T22:56:48.630Z,-1.28
2023-02-26T22:59:18.257Z,-1.20
2023-02-26T23:01:47.824Z,-1.21
2023-02-26T23:04:17.315Z,-1.20
2023-02-26T23:06:46.703Z,-1.06
2023-02-26T23:09:16.003Z,-0.97
2023-02-26T23:11:45.323Z,-0.94
2023-02-26T23:14:14.618Z,-0.91
2023-02-26T23:16:44.865Z,-0.82
2023-02-26T23:19:14.163Z,-0.68
2023-02-26T23:21:43.408Z,-0.59
2023-02-26T23:24:12.754Z,-0.52
2023-02-26T23:26:42.004Z,-0.41
2023-02-26T23:29:11.566Z,-0.38
2023-02-26T23:31:41.837Z,-0.32
2023-02-26T23:34:11.190Z,-0.27
2023-02-26T23:36:40.800Z,-0.26
2023-02-26T23:39:10.180Z,-0.26
2023-02-26T23:41:39.632Z,-0.35
2023-02-26T23:44:09.005Z,-0.42
2023-02-26T23:46:38.735Z,-0.57
2023-02-26T23:49:09.517Z,-0.64
2023-02-26T23:51:39.297Z,-0.70
2023-02-26T23:54:08.507Z,-0.75
2023-02-26T23:56:38.065Z,-0.82
2023-02-26T23:59:07.681Z,-0.90
